Kincolith, Canada
Current Conditions -  °F | °C
As of 2:26 PM on Sunday 23 Nov 2014 (Local Time) from CYPR Reporting Station
Broken Clouds Broken Clouds  
Wind Chill: 45°   Ceiling: 2500
Heat Index: 48°   Visibility: 9mi
Dew Point: 43°   Wind: 7mph
Humidity: 82%   Direction: 220°SW
Pressure: 29.92"   Gusts: NA
Location:  55°N, 129.95°W
Report Text: CYPR 232226Z AUTO 22006KT 190V270 9SM SCT020 BKN025 09/06 A2992 RMK SLP134
Loading
Personal Weather Stations






























Interactive Weather Map New forecast layout! Learn more

10-Day Weather Forecast

Advertisements
Track Severe Weather on mobile